Last 24 Hours

Canyon Lodge - 8,343ft

5 Minute Data | America/Los_Angeles
as of 8/31/26 7:05 PM PDT
Date & Time Temp (°F) RH (%) Dew Pt (°F) Wet Bulb (°F) Wind Dir (°) Wind Spd (mph) Wind Gust (mph) Wind Gst Dir (°)
8/31/26 - 1905 55.7 32 26.2 42.9 SW | 226 4.3 13.7 W | 276
8/31/26 - 1900 55.6 32 26.4 42.9 WSW | 242 6.1 17.6 WSW | 250
8/31/26 - 1855 55.6 32 26.4 42.9 WSW | 238 6.5 18.1 WSW | 253
8/31/26 - 1850 55.7 32 26.4 43.0 SW | 236 6.7 15.4 SW | 225
8/31/26 - 1845 56.1 32 26.6 43.2 SW | 220 5.4 13.4 SSE | 166
8/31/26 - 1840 56.3 32 27.0 43.4 SW | 234 5.8 16.2 WSW | 250
8/31/26 - 1835 56.5 32 27.3 43.6 SW | 219 5.5 16.6 S | 186
8/31/26 - 1830 56.8 32 27.6 43.8 WSW | 244 5.6 15.1 W | 265
8/31/26 - 1825 56.8 32 27.6 43.8 WSW | 240 6.6 15.7 W | 264
8/31/26 - 1820 57.1 32 27.8 44.0 SW | 216 3.9 11.8 WSW | 248
8/31/26 - 1815 57.0 33 28.2 44.1 SW | 220 6.8 19.1 WSW | 246
8/31/26 - 1810 57.5 34 29.3 44.6 SW | 233 6.3 16.2 SW | 224
8/31/26 - 1805 57.6 35 30.0 44.9 SW | 233 5.5 15.2 S | 170
8/31/26 - 1800 57.7 35 30.0 45.0 SW | 217 5.0 18.1 SW | 221
8/31/26 - 1755 57.8 34 29.7 44.9 SW | 219 5.9 17.2 SW | 216
8/31/26 - 1750 58.1 34 29.7 45.0 SW | 215 6.8 14.6 SSW | 210
8/31/26 - 1745 58.0 33 29.3 44.8 SSW | 211 7.6 18.5 WSW | 240
8/31/26 - 1740 58.1 33 28.9 44.8 SW | 225 7.9 17.2 SSE | 165
8/31/26 - 1735 58.4 32 28.4 44.8 SW | 231 7.5 16.9 WSW | 242
8/31/26 - 1730 58.4 32 28.6 44.8 SSW | 213 8.6 20.8 WSW | 254
8/31/26 - 1725 59.1 32 29.2 45.3 SSW | 199 5.3 13.5 SSE | 166
8/31/26 - 1720 59.2 32 29.2 45.4 SSW | 205 6.8 18.6 SSW | 194
8/31/26 - 1715 59.5 32 29.5 45.6 SW | 218 6.8 15.2 S | 189
8/31/26 - 1710 59.9 32 30.0 45.9 SSW | 207 7.1 15.6 SW | 225
8/31/26 - 1705 60.0 32 30.1 46.0 SSW | 205 5.3 15.6 SW | 224
8/31/26 - 1700 60.0 32 30.1 46.0 SSW | 206 6.1 17.2 S | 189
8/31/26 - 1655 60.2 32 30.4 46.2 SSW | 193 6.3 19.6 S | 188
8/31/26 - 1650 60.5 32 30.9 46.5 SSW | 201 7.0 18.1 W | 268
8/31/26 - 1645 60.1 33 31.1 46.3 SW | 220 7.2 16.4 S | 183
8/31/26 - 1640 60.4 33 30.9 46.4 SSW | 207 7.6 17.1 WSW | 251
8/31/26 - 1635 61.4 33 31.9 47.1 SSW | 201 5.6 16.2 WSW | 240
8/31/26 - 1630 61.9 33 32.6 47.6 SW | 215 3.8 8.6 WSW | 239
8/31/26 - 1625 61.4 34 32.8 47.5 SW | 214 7.3 18.9 W | 272
8/31/26 - 1620 61.2 33 32.2 47.2 SSW | 210 6.3 14.5 WSW | 238
8/31/26 - 1615 62.2 33 32.8 47.8 SSW | 194 4.6 14.8 S | 186
8/31/26 - 1610 62.4 33 33.2 48.0 SSW | 198 3.5 11.6 SSW | 194
8/31/26 - 1605 62.9 34 34.0 48.5 SSW | 196 3.3 12.2 SW | 215
8/31/26 - 1600 63.0 35 34.8 48.8 SSW | 205 3.5 8.6 WSW | 242
8/31/26 - 1555 63.0 34 33.8 48.5 SW | 215 2.7 10.0 S | 172
8/31/26 - 1550 62.9 34 34.1 48.5 S | 190 5.7 12.2 SSW | 206
8/31/26 - 1545 63.6 33 33.9 48.7 S | 187 3.7 10.5 S | 174
8/31/26 - 1540 64.4 33 34.9 49.4 SSW | 199 2.2 8.8 ESE | 120
8/31/26 - 1535 63.8 34 34.7 49.1 SSW | 210 4.0 13.3 S | 188
8/31/26 - 1530 62.5 34 33.7 48.3 SW | 234 3.2 9.5 WSW | 241
8/31/26 - 1525 62.8 33 33.6 48.3 WSW | 238 5.2 12.2 SW | 221
8/31/26 - 1520 63.8 34 34.7 49.1 S | 190 5.5 15.6 S | 182
8/31/26 - 1515 64.2 34 35.2 49.4 SSW | 198 4.2 9.5 WSW | 252
8/31/26 - 1510 64.3 34 35.7 49.7 S | 174 2.1 6.3 SSW | 195
8/31/26 - 1505 64.4 35 35.8 49.8 S | 172 4.4 12.8 S | 183
8/31/26 - 1500 64.8 36 36.9 50.3 S | 170 4.7 15.0 S | 178
8/31/26 - 1455 64.8 35 36.5 50.1 SSW | 211 3.1 11.7 S | 182
8/31/26 - 1450 64.0 34 35.1 49.3 S | 174 6.8 16.2 S | 190
8/31/26 - 1445 65.0 34 36.1 50.0 S | 181 3.3 9.8 SE | 142
8/31/26 - 1440 64.9 35 36.3 50.1 SW | 227 2.1 7.5 WSW | 252
8/31/26 - 1435 64.9 35 36.3 50.1 SSW | 196 3.2 9.8 S | 185
8/31/26 - 1430 65.4 35 37.3 50.7 SW | 227 1.1 7.7 SW | 216
8/31/26 - 1425 63.4 35 35.4 49.2 WSW | 238 4.6 11.2 SSW | 211
8/31/26 - 1420 63.9 36 36.4 49.8 SSW | 201 5.8 14.1 S | 170
8/31/26 - 1415 63.8 37 37.2 50.1 S | 187 7.8 16.4 SSW | 197
8/31/26 - 1410 64.4 37 37.8 50.5 SSW | 197 3.8 12.7 S | 173
8/31/26 - 1405 64.8 37 38.0 50.7 S | 182 5.0 14.0 S | 172
8/31/26 - 1400 63.8 37 37.1 50.0 S | 181 8.9 17.4 S | 173
8/31/26 - 1355 64.1 38 37.9 50.4 S | 190 7.6 15.9 SSW | 208
8/31/26 - 1350 63.9 37 37.4 50.2 SSW | 202 4.2 9.9 SSE | 168
8/31/26 - 1345 64.5 38 38.4 50.8 S | 189 5.1 14.7 S | 175
8/31/26 - 1340 64.4 38 38.3 50.7 S | 185 6.2 13.5 S | 178
8/31/26 - 1335 64.9 38 38.5 51.0 SSW | 195 5.3 15.8 S | 175
8/31/26 - 1330 63.7 38 37.5 50.2 S | 191 6.0 17.8 S | 187
8/31/26 - 1325 64.4 38 38.2 50.7 SSW | 197 5.3 12.0 SSE | 164
8/31/26 - 1320 64.6 38 38.4 50.8 SSW | 195 4.7 13.8 S | 180
8/31/26 - 1315 64.5 38 38.2 50.7 SW | 214 5.4 15.0 S | 169
8/31/26 - 1310 65.2 37 38.4 51.0 SSW | 207 3.7 9.7 SW | 219
8/31/26 - 1305 64.5 37 37.7 50.5 SSW | 193 5.7 15.1 SSW | 206
8/31/26 - 1300 65.1 37 38.1 50.9 SSW | 195 4.4 12.5 SSW | 192
8/31/26 - 1255 65.6 38 39.5 51.6 SSW | 197 3.8 11.6 S | 177
8/31/26 - 1250 64.0 38 38.3 50.6 WSW | 245 5.5 15.4 W | 272
8/31/26 - 1245 65.0 38 38.7 51.1 S | 191 3.0 11.6 S | 181
8/31/26 - 1240 63.9 39 38.3 50.5 SSW | 203 5.5 12.4 SW | 229
8/31/26 - 1235 63.9 39 38.3 50.5 SW | 215 5.1 14.2 SW | 222
8/31/26 - 1230 64.5 39 38.8 51.0 SSW | 209 5.0 14.3 S | 185
8/31/26 - 1225 65.5 38 39.2 51.5 S | 185 5.2 12.3 SSE | 159
8/31/26 - 1220 64.6 38 38.5 50.9 SSW | 208 4.6 11.6 S | 187
8/31/26 - 1215 64.4 38 38.2 50.7 NW | 319 4.1 12.0 NW | 321
8/31/26 - 1210 63.7 38 37.6 50.2 WSW | 254 1.6 7.3 SW | 236
8/31/26 - 1205 63.1 38 37.1 49.8 WSW | 238 4.7 10.5 SW | 219
8/31/26 - 1200 62.8 38 37.0 49.6 SW | 230 3.6 11.3 SSW | 212
8/31/26 - 1155 64.0 37 37.4 50.2 SW | 222 4.0 10.9 SSW | 213
8/31/26 - 1150 63.3 36 36.2 49.5 SW | 234 4.8 11.7 SW | 222
8/31/26 - 1145 63.8 37 36.8 49.9 SSW | 207 3.3 8.1 SSW | 196
8/31/26 - 1140 63.2 36 36.2 49.4 SSW | 197 4.3 9.4 SW | 227
8/31/26 - 1135 64.0 37 37.1 50.1 SSW | 194 2.6 11.5 SSE | 153
8/31/26 - 1130 62.9 36 35.5 49.1 SE | 144 5.0 12.4 SSW | 199
8/31/26 - 1125 62.8 37 35.8 49.1 SSE | 147 4.5 11.7 SE | 131
8/31/26 - 1120 63.9 37 37.3 50.1 S | 190 3.7 10.8 SSW | 209
8/31/26 - 1115 64.6 38 38.3 50.8 SSW | 202 3.1 11.1 SW | 221
8/31/26 - 1110 63.7 37 37.1 50.0 ESE | 106 1.7 7.6 S | 184
8/31/26 - 1105 63.2 37 36.5 49.6 NE | 40 0.9 5.8 NNE | 24
8/31/26 - 1100 62.5 37 36.0 49.1 SSE | 163 3.4 8.0 SSW | 201
8/31/26 - 1055 62.8 37 36.1 49.2 S | 188 2.0 7.0 SSE | 153
8/31/26 - 1050 62.4 37 35.7 48.9 NNE | 21 2.8 6.0 N | 4
8/31/26 - 1045 61.8 38 36.3 48.9 NNE | 19 3.4 6.1 NNE | 27
8/31/26 - 1040 63.4 39 37.7 50.1 ESE | 119 1.6 5.6 N | 11
8/31/26 - 1035 62.6 39 37.3 49.6 N | 6 1.8 5.6 NE | 42
8/31/26 - 1030 62.4 38 36.8 49.4 ESE | 115 2.3 5.8 ESE | 119
8/31/26 - 1025 62.2 38 36.2 49.0 NNE | 26 3.2 7.9 N | 352
8/31/26 - 1020 62.2 38 36.3 49.1 NE | 44 1.2 4.3 ESE | 104
8/31/26 - 1015 61.7 38 35.9 48.8 NE | 43 1.4 5.6 NNE | 29
8/31/26 - 1010 61.2 39 35.8 48.5 NE | 34 2.2 6.3 SE | 127
8/31/26 - 1005 62.8 38 37.1 49.6 ENE | 63 1.0 5.1 E | 90
8/31/26 - 1000 61.7 39 36.6 49.0 E | 83 2.1 5.1 E | 96
8/31/26 - 0955 62.5 39 37.5 49.7 SSE | 161 0.5 3.0 ESE | 108
8/31/26 - 0950 61.7 39 36.4 48.9 ENE | 58 1.2 6.1 ESE | 110
8/31/26 - 0945 61.6 40 36.8 49.0 ENE | 58 1.1 5.6 ENE | 76
8/31/26 - 0940 62.0 39 36.8 49.2 ESE | 109 1.4 4.5 ENE | 78
8/31/26 - 0935 61.8 40 37.6 49.4 ESE | 111 0.9 6.3 ESE | 108
8/31/26 - 0930 61.5 40 37.1 49.2 ENE | 67 1.4 4.4 ESE | 103
8/31/26 - 0925 61.9 40 37.6 49.5 ESE | 115 1.3 5.4 ENE | 70
8/31/26 - 0920 60.9 41 36.9 48.8 SW | 232 3.7 10.1 SSW | 206
8/31/26 - 0915 61.7 41 37.7 49.5 S | 175 1.1 6.4 W | 264
8/31/26 - 0910 60.8 41 36.7 48.7 WSW | 237 1.9 6.0 WSW | 253
8/31/26 - 0905 61.0 40 36.8 48.8 SSW | 208 2.7 6.6 SSW | 198
8/31/26 - 0900 60.9 41 36.9 48.8 SSW | 212 1.8 7.5 W | 275
8/31/26 - 0855 60.4 40 35.8 48.2 S | 185 2.7 8.8 SSW | 192
8/31/26 - 0850 60.8 39 35.9 48.4 S | 180 2.4 8.9 S | 190
8/31/26 - 0845 60.5 40 36.1 48.4 SSW | 200 2.9 9.2 SSW | 202
8/31/26 - 0840 60.8 40 36.3 48.5 S | 178 0.8 5.3 SW | 223
8/31/26 - 0835 60.4 40 35.8 48.2 S | 176 2.4 10.1 S | 180
8/31/26 - 0830 60.2 39 35.3 47.9 SSW | 196 2.5 7.0 S | 176
8/31/26 - 0825 59.8 39 35.1 47.7 S | 179 3.5 8.5 SSE | 163
8/31/26 - 0820 59.8 40 35.6 47.9 S | 181 2.3 6.4 SW | 220
8/31/26 - 0815 59.7 41 35.7 47.9 S | 181 1.6 5.5 S | 177
8/31/26 - 0810 59.2 41 35.5 47.6 S | 182 4.1 10.2 S | 172
8/31/26 - 0805 59.4 40 35.0 47.4 SW | 214 2.3 5.7 SW | 233
8/31/26 - 0800 59.1 40 34.6 47.2 S | 184 1.9 5.8 S | 176
8/31/26 - 0755 58.8 40 34.5 47.0 SSW | 194 3.9 8.6 S | 185
8/31/26 - 0750 58.6 41 34.8 47.1 SW | 220 2.5 7.7 SSW | 205
8/31/26 - 0745 58.3 41 34.9 47.0 S | 190 2.7 6.7 S | 187
8/31/26 - 0740 58.2 41 34.6 46.8 SSW | 197 3.1 9.7 S | 184
8/31/26 - 0735 57.8 41 34.3 46.5 S | 182 1.8 5.9 S | 191
8/31/26 - 0730 57.6 41 34.1 46.4 SSW | 193 1.0 5.1 SSE | 162
8/31/26 - 0725 57.1 41 33.5 45.9 S | 185 1.9 6.1 SSE | 148
8/31/26 - 0720 56.0 41 32.7 45.2 SSW | 198 0.7 8.0 S | 171
8/31/26 - 0715 54.3 41 30.9 43.7 W | 275 0.4 2.9 NNW | 341
8/31/26 - 0710 52.3 39 28.4 42.0 ESE | 104 0.4 2.2 SSE | 161
8/31/26 - 0705 51.0 39 27.2 41.0 NW | 315 0.7 3.4 W | 260
8/31/26 - 0700 48.3 39 24.5 38.8 NNE | 31 0.5 2.5 N | 350
8/31/26 - 0655 47.1 39 23.2 37.8 N | 0 0.0 0.0 SE | 132
8/31/26 - 0650 47.2 38 22.8 37.8 SE | 136 0.0 0.4 SE | 140
8/31/26 - 0645 47.1 38 23.1 37.8 SSE | 152 0.0 0.4 SSE | 152
8/31/26 - 0640 47.8 39 23.8 38.3 NNW | 330 0.0 0.8 NNW | 327
8/31/26 - 0635 47.7 38 23.6 38.2 ESE | 113 0.0 0.8 SSE | 166
8/31/26 - 0630 47.7 39 23.9 38.3 NW | 308 0.0 0.2 WNW | 294
8/31/26 - 0625 49.0 40 25.8 39.5 WNW | 286 0.4 2.3 W | 280
8/31/26 - 0620 49.0 40 25.7 39.5 W | 276 0.2 2.5 W | 271
8/31/26 - 0615 49.2 40 26.0 39.7 W | 267 1.2 4.3 WSW | 258
8/31/26 - 0610 49.7 40 26.2 40.0 W | 281 0.4 1.6 WNW | 284
8/31/26 - 0605 49.8 40 26.2 40.1 W | 265 2.3 4.2 W | 263
8/31/26 - 0600 49.1 39 25.4 39.4 W | 273 0.8 3.1 WNW | 284
8/31/26 - 0555 49.0 39 24.9 39.3 W | 272 0.3 2.5 SW | 235
8/31/26 - 0550 49.6 39 25.7 39.8 W | 274 1.0 3.7 WNW | 289
8/31/26 - 0545 49.1 39 25.0 39.4 W | 276 1.2 3.9 W | 274
8/31/26 - 0540 48.4 38 24.1 38.7 WSW | 253 0.3 2.1 SSW | 197
8/31/26 - 0535 48.4 38 24.2 38.8 SSW | 213 0.4 3.4 S | 177
8/31/26 - 0530 49.0 38 24.6 39.2 W | 262 0.4 3.9 WSW | 253
8/31/26 - 0525 48.9 38 24.7 39.2 WNW | 292 0.1 1.8 NW | 312
8/31/26 - 0520 49.1 38 24.8 39.3 WSW | 256 0.3 2.3 WSW | 255
8/31/26 - 0515 49.1 38 24.8 39.3 WSW | 237 0.4 2.6 S | 182
8/31/26 - 0510 49.4 38 24.7 39.4 SW | 223 0.7 2.7 WSW | 243
8/31/26 - 0505 49.2 37 24.2 39.2 W | 270 0.4 2.3 WSW | 248
8/31/26 - 0500 49.5 37 24.4 39.4 W | 267 0.0 0.4 W | 268
8/31/26 - 0455 50.0 38 25.4 39.9 WSW | 247 0.3 2.1 W | 261
8/31/26 - 0450 49.2 38 24.9 39.3 N | 0 0.0 0.0 SSE | 166
8/31/26 - 0445 49.7 40 26.3 40.0 W | 277 0.1 1.0 W | 278
8/31/26 - 0440 49.6 40 26.3 40.0 WNW | 286 0.1 1.4 W | 274
8/31/26 - 0435 49.5 39 25.7 39.7 SW | 227 0.0 0.3 WSW | 243
8/31/26 - 0430 49.2 38 24.6 39.3 N | 0 0.0 0.0 SSW | 192
8/31/26 - 0425 48.7 38 24.3 38.9 SSW | 201 0.3 1.9 SSW | 204
8/31/26 - 0420 48.4 38 24.2 38.8 S | 185 0.2 2.0 SSW | 199
8/31/26 - 0415 48.8 39 24.7 39.1 E | 92 0.1 1.5 ENE | 70
8/31/26 - 0410 48.9 39 25.2 39.3 SW | 224 0.0 0.8 WSW | 242
8/31/26 - 0405 49.0 39 25.0 39.3 SSW | 203 0.1 0.9 SSW | 205
8/31/26 - 0400 49.4 38 24.9 39.4 SSW | 209 0.2 2.1 SSW | 197
8/31/26 - 0355 50.4 39 26.3 40.4 WSW | 243 0.1 1.7 WSW | 248
8/31/26 - 0350 49.6 38 25.0 39.6 N | 0 0.0 0.0 WSW | 252
8/31/26 - 0345 50.3 38 25.4 40.1 WSW | 249 0.8 3.0 WSW | 246
8/31/26 - 0340 50.7 37 25.5 40.3 W | 260 2.1 3.6 WSW | 252
8/31/26 - 0335 50.4 38 26.0 40.3 SW | 229 0.2 1.2 WSW | 257
8/31/26 - 0330 50.6 38 25.7 40.3 WSW | 250 0.4 3.0 WSW | 239
8/31/26 - 0325 51.1 36 25.2 40.4 WSW | 248 2.1 3.5 WSW | 241
8/31/26 - 0320 50.5 37 25.1 40.1 WSW | 256 2.9 5.2 W | 262
8/31/26 - 0315 51.1 36 25.3 40.4 WSW | 253 3.1 5.0 W | 267
8/31/26 - 0310 50.9 37 25.6 40.4 SW | 229 1.6 3.7 WSW | 244
8/31/26 - 0305 50.3 38 26.0 40.2 SSW | 208 0.2 1.7 SW | 216
8/31/26 - 0300 50.7 38 25.7 40.3 SW | 218 0.7 3.2 SSW | 204
8/31/26 - 0255 50.5 37 25.4 40.2 SSW | 206 0.2 2.4 SSW | 208
8/31/26 - 0250 51.1 38 26.3 40.7 SW | 220 2.2 3.7 SW | 217
8/31/26 - 0245 51.0 37 25.9 40.6 SW | 215 1.2 3.3 SSW | 196
8/31/26 - 0240 51.1 38 26.2 40.7 SW | 223 1.9 4.1 SW | 230
8/31/26 - 0235 51.1 37 25.6 40.5 SW | 228 1.4 3.4 SW | 225
8/31/26 - 0230 51.6 35 24.8 40.5 SW | 227 2.1 3.7 SW | 218
8/31/26 - 0225 51.5 35 25.0 40.5 SW | 235 1.6 3.5 WSW | 245
8/31/26 - 0220 51.5 36 25.4 40.6 SW | 229 1.6 3.6 SW | 216
8/31/26 - 0215 50.9 37 25.5 40.4 SW | 226 0.8 3.0 SSW | 210
8/31/26 - 0210 49.4 37 24.1 39.2 SW | 225 0.0 0.3 SW | 225
8/31/26 - 0205 49.6 37 24.2 39.4 SSW | 196 0.1 1.8 SSW | 204
8/31/26 - 0200 49.4 35 23.1 38.9 S | 176 0.0 1.2 SSE | 148
8/31/26 - 0155 49.5 35 22.8 38.9 SSW | 196 0.0 0.8 SSW | 206
8/31/26 - 0150 50.0 35 23.5 39.3 SW | 217 0.0 0.5 SW | 221
8/31/26 - 0145 50.2 35 23.9 39.6 S | 184 0.0 1.0 S | 188
8/31/26 - 0140 50.7 36 24.6 40.0 W | 263 0.1 0.7 W | 267
8/31/26 - 0135 50.6 36 24.3 39.9 W | 279 0.0 1.0 W | 275
8/31/26 - 0130 51.1 35 24.7 40.3 ENE | 63 0.0 0.5 ENE | 59
8/31/26 - 0125 52.1 35 25.0 40.8 SW | 220 1.4 2.9 SW | 228
8/31/26 - 0120 51.5 35 24.6 40.4 SSW | 209 0.3 2.1 SW | 225
8/31/26 - 0115 51.2 34 24.0 40.1 SSW | 203 0.0 0.9 SSW | 199
8/31/26 - 0110 51.4 35 24.8 40.4 SSW | 197 0.8 3.9 SSW | 197
8/31/26 - 0105 51.3 36 25.3 40.5 W | 278 0.1 1.4 W | 281
8/31/26 - 0100 51.8 36 25.8 40.9 W | 274 0.0 0.9 W | 279
8/31/26 - 0055 52.6 36 26.4 41.5 WSW | 247 0.6 2.2 WSW | 257
8/31/26 - 0050 52.6 36 26.3 41.4 W | 275 0.3 3.4 WSW | 257
8/31/26 - 0045 53.2 37 27.9 42.3 W | 264 1.9 4.0 W | 269
8/31/26 - 0040 53.4 37 27.8 42.3 WSW | 249 1.9 4.1 W | 265
8/31/26 - 0035 54.0 36 27.9 42.6 SW | 222 3.4 5.8 SW | 226
8/31/26 - 0030 53.6 36 27.2 42.2 SW | 230 0.8 3.0 SSW | 212
8/31/26 - 0025 53.6 35 26.8 42.1 SW | 230 0.3 1.2 WSW | 246
8/31/26 - 0020 52.3 35 25.6 41.1 WSW | 245 0.2 1.6 WSW | 250
8/31/26 - 0015 52.8 36 26.7 41.7 S | 185 0.0 1.0 S | 183
8/31/26 - 0010 53.5 36 27.0 42.1 N | 0 0.0 0.0 SW | 214
8/31/26 - 0005 54.9 34 27.4 42.9 ESE | 120 0.2 1.2 SE | 138
8/31/26 - 0000 57.2 34 29.2 44.5 S | 182 1.2 5.0 SSW | 206
8/30/26 - 2355 58.3 35 30.6 45.4 SW | 214 0.8 3.1 SSW | 202
8/30/26 - 2350 58.8 35 31.4 45.9 SW | 234 1.5 4.8 SSW | 203
8/30/26 - 2345 58.2 35 30.4 45.3 SSW | 202 1.1 4.3 WSW | 256
8/30/26 - 2340 58.1 35 30.6 45.3 SSW | 194 0.5 2.4 SSE | 166
8/30/26 - 2335 58.5 35 31.1 45.7 SSW | 204 1.9 5.2 SW | 232
8/30/26 - 2330 58.2 35 30.7 45.4 SSW | 202 1.4 5.1 S | 170
8/30/26 - 2325 58.3 34 30.2 45.3 SSW | 206 1.0 3.2 SSW | 201
8/30/26 - 2320 59.4 34 31.2 46.1 SW | 226 1.0 3.8 WSW | 247
8/30/26 - 2315 58.9 34 30.8 45.7 S | 187 1.2 5.3 SSW | 210
8/30/26 - 2310 59.1 35 31.4 46.0 SSW | 206 1.1 4.5 S | 183
8/30/26 - 2305 59.7 35 31.8 46.4 SSW | 212 2.0 5.8 SSE | 148
8/30/26 - 2300 59.5 34 30.8 46.0 SSW | 212 1.9 6.1 W | 263
8/30/26 - 2255 58.5 34 30.6 45.5 SSW | 206 0.5 2.9 SSW | 204
8/30/26 - 2250 58.8 34 30.6 45.6 WSW | 245 0.8 4.6 SW | 233
8/30/26 - 2245 58.6 34 30.6 45.6 SSW | 201 0.6 4.0 S | 178
8/30/26 - 2240 57.9 34 29.7 45.0 S | 183 1.0 4.5 S | 187
8/30/26 - 2235 58.0 34 29.6 44.9 SSW | 202 0.3 2.4 SSW | 195
8/30/26 - 2230 57.7 34 29.8 44.9 S | 190 0.8 4.8 S | 191
8/30/26 - 2225 57.9 34 30.1 45.1 S | 172 0.6 6.3 SSE | 159
8/30/26 - 2220 59.0 35 31.2 45.9 SW | 232 0.3 3.2 W | 280
8/30/26 - 2215 59.6 34 31.3 46.2 SW | 216 2.2 9.5 SW | 230
8/30/26 - 2210 59.7 33 30.4 46.0 SW | 214 2.6 5.8 SSE | 159
8/30/26 - 2205 59.8 33 30.8 46.1 SSW | 212 1.9 5.0 SSW | 210
8/30/26 - 2200 59.8 34 31.6 46.4 SSW | 208 1.8 6.8 WSW | 251
8/30/26 - 2155 60.3 33 31.0 46.4 SSW | 196 3.1 10.2 S | 187
8/30/26 - 2150 60.4 32 30.1 46.2 SSW | 203 4.8 10.6 S | 172
8/30/26 - 2145 60.3 32 30.3 46.2 S | 177 3.3 8.0 S | 171
8/30/26 - 2140 60.3 31 29.8 46.0 SW | 221 3.0 8.4 S | 177
8/30/26 - 2135 60.5 31 29.9 46.1 SW | 223 3.4 8.3 WSW | 245
8/30/26 - 2130 60.8 31 30.1 46.3 SSW | 195 4.7 14.3 SSW | 207
8/30/26 - 2125 60.4 32 30.1 46.2 S | 185 2.4 7.6 S | 178
8/30/26 - 2120 60.5 32 30.2 46.2 S | 179 3.1 10.1 SSE | 160
8/30/26 - 2115 60.5 32 30.2 46.2 SSW | 194 2.0 6.6 SSE | 164
8/30/26 - 2110 60.2 32 29.9 46.0 S | 189 2.3 9.1 S | 184
8/30/26 - 2105 59.9 32 29.7 45.8 S | 169 2.7 7.3 S | 175
8/30/26 - 2100 60.0 32 29.8 45.9 S | 187 4.2 11.0 S | 186
8/30/26 - 2055 59.9 32 29.7 45.8 S | 188 3.7 10.3 S | 174
8/30/26 - 2050 59.8 32 29.6 45.8 S | 186 2.4 7.4 S | 187
8/30/26 - 2045 59.8 32 29.6 45.8 S | 183 2.6 8.8 S | 187
8/30/26 - 2040 59.9 32 29.7 45.8 SSW | 195 2.5 7.7 WSW | 256
8/30/26 - 2035 59.8 32 29.6 45.8 SSW | 203 1.5 6.6 S | 177
8/30/26 - 2030 59.7 32 29.5 45.7 SSW | 192 1.9 7.9 SSE | 150
8/30/26 - 2025 59.1 31 28.6 45.1 SSE | 148 0.8 5.5 SSE | 152
8/30/26 - 2020 59.5 31 29.0 45.4 S | 174 1.4 4.5 SSE | 164
8/30/26 - 2015 59.6 31 29.2 45.5 S | 169 2.1 6.0 SSW | 201
8/30/26 - 2010 59.5 31 29.0 45.4 S | 191 0.5 4.1 SSE | 159
8/30/26 - 2005 59.6 32 29.5 45.6 S | 181 1.0 6.5 SSE | 166
8/30/26 - 2000 59.6 32 29.5 45.6 S | 170 1.5 5.2 SSW | 194
8/30/26 - 1955 59.5 32 29.4 45.5 S | 173 1.2 6.3 SSW | 210
8/30/26 - 1950 59.7 32 29.9 45.8 SSE | 163 1.8 6.0 W | 268
8/30/26 - 1945 59.8 33 30.8 46.1 SSW | 201 2.2 8.7 S | 180
8/30/26 - 1940 60.2 34 31.5 46.5 SSW | 211 0.7 4.8 SSE | 165
8/30/26 - 1935 60.3 34 32.1 46.8 SW | 221 1.5 4.6 SSE | 159
8/30/26 - 1930 60.5 34 32.2 46.9 SSW | 206 2.1 6.4 S | 181
8/30/26 - 1925 60.3 34 31.6 46.6 S | 190 2.0 7.3 SSW | 192
8/30/26 - 1920 60.2 33 30.9 46.3 SSW | 197 0.4 3.2 SW | 234
8/30/26 - 1915 60.3 33 31.3 46.5 SSW | 201 3.0 7.0 SSW | 206
8/30/26 - 1910 60.5 33 31.4 46.6 SSE | 158 1.7 7.5 SE | 146
8/30/26 - 1905 59.9 33 30.9 46.2 SSE | 148 1.4 5.0 ESE | 119
Max 65.6 41 39.5 51.6 - 8.9 20.8 -
Avg 57.8 36 31.0 45.3 - 2.6 7.5 -
Min 47.1 31 22.8 37.8 - 0.0 0.0 -